sensor_id;sensor_type;location;lat;lon;timestamp;temperature;humidity
26408;DHT22;14583;43.604;1.364;2022-08-03T00:01:37;28.40;57.90
26408;DHT22;14583;43.604;1.364;2022-08-03T00:04:05;28.40;58.00
26408;DHT22;14583;43.604;1.364;2022-08-03T00:06:31;28.30;58.20
26408;DHT22;14583;43.604;1.364;2022-08-03T00:08:57;28.20;58.30
26408;DHT22;14583;43.604;1.364;2022-08-03T00:11:22;28.30;58.60
26408;DHT22;14583;43.604;1.364;2022-08-03T00:13:48;28.30;58.40
26408;DHT22;14583;43.604;1.364;2022-08-03T00:16:14;28.20;58.60
26408;DHT22;14583;43.604;1.364;2022-08-03T00:18:40;28.10;58.80
26408;DHT22;14583;43.604;1.364;2022-08-03T00:21:06;28.10;59.00
26408;DHT22;14583;43.604;1.364;2022-08-03T00:23:33;28.00;58.90
26408;DHT22;14583;43.604;1.364;2022-08-03T00:25:59;28.00;59.30
26408;DHT22;14583;43.604;1.364;2022-08-03T00:28:24;27.90;59.20
26408;DHT22;14583;43.604;1.364;2022-08-03T00:30:50;28.00;59.40
26408;DHT22;14583;43.604;1.364;2022-08-03T00:33:16;28.00;59.30
26408;DHT22;14583;43.604;1.364;2022-08-03T00:35:42;28.00;59.70
26408;DHT22;14583;43.604;1.364;2022-08-03T00:38:07;27.90;59.70
26408;DHT22;14583;43.604;1.364;2022-08-03T00:40:33;28.00;59.90
26408;DHT22;14583;43.604;1.364;2022-08-03T00:43:01;27.90;59.80
26408;DHT22;14583;43.604;1.364;2022-08-03T00:45:30;27.90;60.30
26408;DHT22;14583;43.604;1.364;2022-08-03T00:47:57;27.70;61.50
26408;DHT22;14583;43.604;1.364;2022-08-03T00:50:25;27.50;61.80
26408;DHT22;14583;43.604;1.364;2022-08-03T00:52:56;27.30;62.30
26408;DHT22;14583;43.604;1.364;2022-08-03T00:55:22;27.40;62.80
26408;DHT22;14583;43.604;1.364;2022-08-03T00:57:48;27.30;63.10
26408;DHT22;14583;43.604;1.364;2022-08-03T01:00:19;27.30;63.10
26408;DHT22;14583;43.604;1.364;2022-08-03T01:02:45;27.30;63.30
26408;DHT22;14583;43.604;1.364;2022-08-03T01:05:11;27.20;63.40
26408;DHT22;14583;43.604;1.364;2022-08-03T01:07:54;27.20;63.60
26408;DHT22;14583;43.604;1.364;2022-08-03T01:10:56;27.00;64.20
26408;DHT22;14583;43.604;1.364;2022-08-03T01:16:29;27.00;64.90
26408;DHT22;14583;43.604;1.364;2022-08-03T01:30:30;26.80;65.30
26408;DHT22;14583;43.604;1.364;2022-08-03T01:33:13;26.80;65.70
26408;DHT22;14583;43.604;1.364;2022-08-03T01:35:53;26.70;66.40
26408;DHT22;14583;43.604;1.364;2022-08-03T01:38:25;26.70;66.90
26408;DHT22;14583;43.604;1.364;2022-08-03T01:40:55;26.70;66.50
26408;DHT22;14583;43.604;1.364;2022-08-03T01:43:25;26.70;65.90
26408;DHT22;14583;43.604;1.364;2022-08-03T01:45:53;26.70;66.20
26408;DHT22;14583;43.604;1.364;2022-08-03T01:48:20;26.70;65.70
26408;DHT22;14583;43.604;1.364;2022-08-03T01:50:47;26.60;65.80
26408;DHT22;14583;43.604;1.364;2022-08-03T01:53:14;26.50;66.40
26408;DHT22;14583;43.604;1.364;2022-08-03T01:55:44;26.70;66.20
26408;DHT22;14583;43.604;1.364;2022-08-03T01:58:13;26.70;66.40
26408;DHT22;14583;43.604;1.364;2022-08-03T02:00:40;26.60;67.20
26408;DHT22;14583;43.604;1.364;2022-08-03T02:03:07;26.60;66.20
26408;DHT22;14583;43.604;1.364;2022-08-03T02:05:34;26.70;66.30
26408;DHT22;14583;43.604;1.364;2022-08-03T02:08:02;26.60;66.20
26408;DHT22;14583;43.604;1.364;2022-08-03T02:10:29;26.60;65.70
26408;DHT22;14583;43.604;1.364;2022-08-03T02:12:58;26.50;65.50
26408;DHT22;14583;43.604;1.364;2022-08-03T02:15:26;26.40;65.50
26408;DHT22;14583;43.604;1.364;2022-08-03T02:17:54;26.30;65.40
26408;DHT22;14583;43.604;1.364;2022-08-03T02:20:21;26.40;64.40
26408;DHT22;14583;43.604;1.364;2022-08-03T02:22:48;26.40;64.60
26408;DHT22;14583;43.604;1.364;2022-08-03T02:25:14;26.40;64.70
26408;DHT22;14583;43.604;1.364;2022-08-03T02:27:58;26.30;65.30
26408;DHT22;14583;43.604;1.364;2022-08-03T02:30:32;26.10;64.80
26408;DHT22;14583;43.604;1.364;2022-08-03T02:33:02;26.10;64.80
26408;DHT22;14583;43.604;1.364;2022-08-03T02:35:31;26.00;65.00
26408;DHT22;14583;43.604;1.364;2022-08-03T02:38:01;26.00;65.00
26408;DHT22;14583;43.604;1.364;2022-08-03T02:40:28;26.00;65.30
26408;DHT22;14583;43.604;1.364;2022-08-03T02:42:58;26.00;65.10
26408;DHT22;14583;43.604;1.364;2022-08-03T02:45:26;26.00;65.20
26408;DHT22;14583;43.604;1.364;2022-08-03T02:47:56;26.00;65.10
26408;DHT22;14583;43.604;1.364;2022-08-03T02:50:23;25.90;65.20
26408;DHT22;14583;43.604;1.364;2022-08-03T02:52:51;25.80;65.40
26408;DHT22;14583;43.604;1.364;2022-08-03T02:55:19;25.80;65.50
26408;DHT22;14583;43.604;1.364;2022-08-03T02:57:46;25.90;65.50
26408;DHT22;14583;43.604;1.364;2022-08-03T03:00:13;25.90;65.20
26408;DHT22;14583;43.604;1.364;2022-08-03T03:02:40;25.80;65.10
26408;DHT22;14583;43.604;1.364;2022-08-03T03:05:07;25.70;65.70
26408;DHT22;14583;43.604;1.364;2022-08-03T03:07:35;25.70;65.90
26408;DHT22;14583;43.604;1.364;2022-08-03T03:10:03;25.70;65.70
26408;DHT22;14583;43.604;1.364;2022-08-03T03:12:30;25.70;65.60
26408;DHT22;14583;43.604;1.364;2022-08-03T03:14:56;25.70;65.20
26408;DHT22;14583;43.604;1.364;2022-08-03T03:17:22;25.50;65.70
26408;DHT22;14583;43.604;1.364;2022-08-03T03:19:50;25.40;66.00
26408;DHT22;14583;43.604;1.364;2022-08-03T03:22:16;25.40;66.30
26408;DHT22;14583;43.604;1.364;2022-08-03T03:24:43;25.40;66.20
26408;DHT22;14583;43.604;1.364;2022-08-03T03:27:10;25.50;66.50
26408;DHT22;14583;43.604;1.364;2022-08-03T03:29:38;25.30;66.50
26408;DHT22;14583;43.604;1.364;2022-08-03T03:32:04;25.20;67.00
26408;DHT22;14583;43.604;1.364;2022-08-03T03:34:30;25.00;67.10
26408;DHT22;14583;43.604;1.364;2022-08-03T03:36:56;24.90;67.60
26408;DHT22;14583;43.604;1.364;2022-08-03T03:39:22;25.00;67.40
26408;DHT22;14583;43.604;1.364;2022-08-03T03:41:48;25.10;68.10
26408;DHT22;14583;43.604;1.364;2022-08-03T03:44:13;25.10;67.70
26408;DHT22;14583;43.604;1.364;2022-08-03T03:46:40;25.00;67.70
26408;DHT22;14583;43.604;1.364;2022-08-03T03:49:06;24.90;68.10
26408;DHT22;14583;43.604;1.364;2022-08-03T03:51:32;24.90;68.00
26408;DHT22;14583;43.604;1.364;2022-08-03T03:53:59;24.90;68.10
26408;DHT22;14583;43.604;1.364;2022-08-03T03:56:25;25.00;67.70
26408;DHT22;14583;43.604;1.364;2022-08-03T03:58:51;25.10;67.30
26408;DHT22;14583;43.604;1.364;2022-08-03T04:01:18;25.20;67.00
26408;DHT22;14583;43.604;1.364;2022-08-03T04:03:44;25.30;66.50
26408;DHT22;14583;43.604;1.364;2022-08-03T04:06:11;25.30;66.60
26408;DHT22;14583;43.604;1.364;2022-08-03T04:08:55;25.30;67.00
26408;DHT22;14583;43.604;1.364;2022-08-03T04:14:25;25.30;66.90
26408;DHT22;14583;43.604;1.364;2022-08-03T04:17:02;25.40;66.50
26408;DHT22;14583;43.604;1.364;2022-08-03T04:19:39;25.30;66.80
26408;DHT22;14583;43.604;1.364;2022-08-03T04:22:09;25.10;67.00
26408;DHT22;14583;43.604;1.364;2022-08-03T04:24:42;25.10;66.70
26408;DHT22;14583;43.604;1.364;2022-08-03T04:27:11;25.10;67.30
26408;DHT22;14583;43.604;1.364;2022-08-03T04:29:40;25.10;67.10
26408;DHT22;14583;43.604;1.364;2022-08-03T04:32:08;25.20;67.20
26408;DHT22;14583;43.604;1.364;2022-08-03T04:34:35;25.20;67.00
26408;DHT22;14583;43.604;1.364;2022-08-03T04:37:04;25.10;67.30
26408;DHT22;14583;43.604;1.364;2022-08-03T04:39:32;25.10;67.90
26408;DHT22;14583;43.604;1.364;2022-08-03T04:42:01;25.00;68.70
26408;DHT22;14583;43.604;1.364;2022-08-03T04:44:29;24.90;69.30
26408;DHT22;14583;43.604;1.364;2022-08-03T04:46:57;24.80;69.50
26408;DHT22;14583;43.604;1.364;2022-08-03T04:49:24;24.70;70.00
26408;DHT22;14583;43.604;1.364;2022-08-03T04:51:50;24.80;69.80
26408;DHT22;14583;43.604;1.364;2022-08-03T04:54:16;24.90;69.30
26408;DHT22;14583;43.604;1.364;2022-08-03T04:56:42;24.90;69.30
26408;DHT22;14583;43.604;1.364;2022-08-03T04:59:09;24.80;69.70
26408;DHT22;14583;43.604;1.364;2022-08-03T05:01:35;24.80;70.00
26408;DHT22;14583;43.604;1.364;2022-08-03T05:04:00;24.80;70.30
26408;DHT22;14583;43.604;1.364;2022-08-03T05:06:26;24.80;70.40
26408;DHT22;14583;43.604;1.364;2022-08-03T05:08:52;24.80;70.30
26408;DHT22;14583;43.604;1.364;2022-08-03T05:11:18;24.90;70.60
26408;DHT22;14583;43.604;1.364;2022-08-03T05:13:44;24.90;71.40
26408;DHT22;14583;43.604;1.364;2022-08-03T05:16:10;24.70;71.60
26408;DHT22;14583;43.604;1.364;2022-08-03T05:18:36;24.60;72.10
26408;DHT22;14583;43.604;1.364;2022-08-03T05:21:02;24.50;72.80
26408;DHT22;14583;43.604;1.364;2022-08-03T05:23:29;24.60;72.60
26408;DHT22;14583;43.604;1.364;2022-08-03T05:25:55;24.60;72.20
26408;DHT22;14583;43.604;1.364;2022-08-03T05:28:21;24.70;72.60
26408;DHT22;14583;43.604;1.364;2022-08-03T05:30:47;24.70;72.40
26408;DHT22;14583;43.604;1.364;2022-08-03T05:33:12;24.70;72.60
26408;DHT22;14583;43.604;1.364;2022-08-03T05:35:39;24.70;72.60
26408;DHT22;14583;43.604;1.364;2022-08-03T05:38:04;24.80;72.40
26408;DHT22;14583;43.604;1.364;2022-08-03T05:40:30;24.80;71.70
26408;DHT22;14583;43.604;1.364;2022-08-03T05:42:57;24.90;72.00
26408;DHT22;14583;43.604;1.364;2022-08-03T05:45:23;24.80;72.10
26408;DHT22;14583;43.604;1.364;2022-08-03T05:47:49;24.80;72.00
26408;DHT22;14583;43.604;1.364;2022-08-03T05:50:17;24.80;71.90
26408;DHT22;14583;43.604;1.364;2022-08-03T05:52:43;24.80;72.20
26408;DHT22;14583;43.604;1.364;2022-08-03T05:55:10;24.80;72.10
26408;DHT22;14583;43.604;1.364;2022-08-03T05:57:36;24.90;72.10
26408;DHT22;14583;43.604;1.364;2022-08-03T06:00:10;24.90;72.80
26408;DHT22;14583;43.604;1.364;2022-08-03T06:02:36;24.90;73.00
26408;DHT22;14583;43.604;1.364;2022-08-03T06:05:03;24.80;73.30
26408;DHT22;14583;43.604;1.364;2022-08-03T06:07:29;24.80;73.40
26408;DHT22;14583;43.604;1.364;2022-08-03T06:09:54;24.80;73.20
26408;DHT22;14583;43.604;1.364;2022-08-03T06:12:20;24.90;73.10
26408;DHT22;14583;43.604;1.364;2022-08-03T06:14:46;24.90;72.10
26408;DHT22;14583;43.604;1.364;2022-08-03T06:17:11;25.00;72.20
26408;DHT22;14583;43.604;1.364;2022-08-03T06:19:37;25.20;71.70
26408;DHT22;14583;43.604;1.364;2022-08-03T06:22:03;25.30;71.70
26408;DHT22;14583;43.604;1.364;2022-08-03T06:24:29;25.20;72.30
26408;DHT22;14583;43.604;1.364;2022-08-03T06:26:54;25.10;72.60
26408;DHT22;14583;43.604;1.364;2022-08-03T06:29:20;25.00;73.00
26408;DHT22;14583;43.604;1.364;2022-08-03T06:31:46;25.10;72.70
26408;DHT22;14583;43.604;1.364;2022-08-03T06:34:11;25.10;72.80
26408;DHT22;14583;43.604;1.364;2022-08-03T06:36:37;25.10;73.00
26408;DHT22;14583;43.604;1.364;2022-08-03T06:39:03;25.20;72.70
26408;DHT22;14583;43.604;1.364;2022-08-03T06:41:29;25.20;72.80
26408;DHT22;14583;43.604;1.364;2022-08-03T06:43:55;25.20;72.70
26408;DHT22;14583;43.604;1.364;2022-08-03T06:46:21;25.30;72.70
26408;DHT22;14583;43.604;1.364;2022-08-03T06:48:46;25.30;71.70
26408;DHT22;14583;43.604;1.364;2022-08-03T06:51:12;25.40;71.80
26408;DHT22;14583;43.604;1.364;2022-08-03T06:53:38;25.40;71.70
26408;DHT22;14583;43.604;1.364;2022-08-03T06:56:04;25.50;71.60
26408;DHT22;14583;43.604;1.364;2022-08-03T06:58:30;25.50;72.60
26408;DHT22;14583;43.604;1.364;2022-08-03T07:00:56;25.40;71.70
26408;DHT22;14583;43.604;1.364;2022-08-03T07:03:21;25.50;71.30
26408;DHT22;14583;43.604;1.364;2022-08-03T07:05:47;25.60;71.30
26408;DHT22;14583;43.604;1.364;2022-08-03T07:08:14;25.70;70.80
26408;DHT22;14583;43.604;1.364;2022-08-03T07:10:40;25.70;71.60
26408;DHT22;14583;43.604;1.364;2022-08-03T07:13:06;25.80;71.40
26408;DHT22;14583;43.604;1.364;2022-08-03T07:15:31;25.80;71.80
26408;DHT22;14583;43.604;1.364;2022-08-03T07:17:57;25.80;71.20
26408;DHT22;14583;43.604;1.364;2022-08-03T07:20:23;25.90;71.50
26408;DHT22;14583;43.604;1.364;2022-08-03T07:22:49;26.00;70.70
26408;DHT22;14583;43.604;1.364;2022-08-03T07:25:14;26.00;70.70
26408;DHT22;14583;43.604;1.364;2022-08-03T07:27:44;26.00;71.70
26408;DHT22;14583;43.604;1.364;2022-08-03T07:30:10;26.10;70.20
26408;DHT22;14583;43.604;1.364;2022-08-03T07:32:36;26.10;71.20
26408;DHT22;14583;43.604;1.364;2022-08-03T07:35:02;26.10;71.40
26408;DHT22;14583;43.604;1.364;2022-08-03T07:37:29;26.20;71.50
26408;DHT22;14583;43.604;1.364;2022-08-03T07:39:55;26.20;70.90
26408;DHT22;14583;43.604;1.364;2022-08-03T07:42:20;26.30;70.70
26408;DHT22;14583;43.604;1.364;2022-08-03T07:44:48;26.40;70.50
26408;DHT22;14583;43.604;1.364;2022-08-03T07:47:25;26.50;69.30
26408;DHT22;14583;43.604;1.364;2022-08-03T07:49:51;26.50;70.10
26408;DHT22;14583;43.604;1.364;2022-08-03T07:52:17;26.60;70.40
26408;DHT22;14583;43.604;1.364;2022-08-03T07:55:02;26.60;70.30
26408;DHT22;14583;43.604;1.364;2022-08-03T07:57:27;26.60;69.70
26408;DHT22;14583;43.604;1.364;2022-08-03T07:59:53;26.70;70.30
26408;DHT22;14583;43.604;1.364;2022-08-03T08:02:19;26.80;69.10
26408;DHT22;14583;43.604;1.364;2022-08-03T08:04:44;26.80;70.10
26408;DHT22;14583;43.604;1.364;2022-08-03T08:07:10;26.90;68.60
26408;DHT22;14583;43.604;1.364;2022-08-03T08:09:36;27.00;70.10
26408;DHT22;14583;43.604;1.364;2022-08-03T08:12:02;27.00;70.00
26408;DHT22;14583;43.604;1.364;2022-08-03T08:14:27;27.20;70.20
26408;DHT22;14583;43.604;1.364;2022-08-03T08:16:54;27.30;70.00
26408;DHT22;14583;43.604;1.364;2022-08-03T08:19:19;27.40;70.30
26408;DHT22;14583;43.604;1.364;2022-08-03T08:21:45;27.50;70.20
26408;DHT22;14583;43.604;1.364;2022-08-03T08:24:10;27.60;70.30
26408;DHT22;14583;43.604;1.364;2022-08-03T08:26:36;27.70;70.20
26408;DHT22;14583;43.604;1.364;2022-08-03T08:29:03;27.70;69.80
26408;DHT22;14583;43.604;1.364;2022-08-03T08:31:29;27.80;70.50
26408;DHT22;14583;43.604;1.364;2022-08-03T08:33:58;27.90;71.00
26408;DHT22;14583;43.604;1.364;2022-08-03T08:36:24;28.10;71.30
26408;DHT22;14583;43.604;1.364;2022-08-03T08:38:50;28.20;71.60
26408;DHT22;14583;43.604;1.364;2022-08-03T08:41:16;28.40;70.90
26408;DHT22;14583;43.604;1.364;2022-08-03T08:43:42;28.40;70.80
26408;DHT22;14583;43.604;1.364;2022-08-03T08:46:12;28.50;70.90
26408;DHT22;14583;43.604;1.364;2022-08-03T08:48:40;28.60;71.00
26408;DHT22;14583;43.604;1.364;2022-08-03T08:51:07;28.70;70.50
26408;DHT22;14583;43.604;1.364;2022-08-03T08:53:36;28.80;70.20
26408;DHT22;14583;43.604;1.364;2022-08-03T08:56:03;29.10;69.50
26408;DHT22;14583;43.604;1.364;2022-08-03T08:58:36;29.10;69.40
26408;DHT22;14583;43.604;1.364;2022-08-03T09:01:03;29.30;68.80
26408;DHT22;14583;43.604;1.364;2022-08-03T09:03:29;29.30;68.30
26408;DHT22;14583;43.604;1.364;2022-08-03T09:05:59;29.30;68.30
26408;DHT22;14583;43.604;1.364;2022-08-03T09:08:25;29.20;68.30
26408;DHT22;14583;43.604;1.364;2022-08-03T09:10:50;29.10;68.70
26408;DHT22;14583;43.604;1.364;2022-08-03T09:13:16;29.20;68.70
26408;DHT22;14583;43.604;1.364;2022-08-03T09:15:42;29.40;68.00
26408;DHT22;14583;43.604;1.364;2022-08-03T09:18:09;29.50;68.10
26408;DHT22;14583;43.604;1.364;2022-08-03T09:20:38;29.60;68.10
26408;DHT22;14583;43.604;1.364;2022-08-03T09:23:06;29.50;67.80
26408;DHT22;14583;43.604;1.364;2022-08-03T09:25:38;29.50;67.70
26408;DHT22;14583;43.604;1.364;2022-08-03T09:28:09;29.60;67.90
26408;DHT22;14583;43.604;1.364;2022-08-03T09:30:40;29.80;67.30
26408;DHT22;14583;43.604;1.364;2022-08-03T09:33:10;29.80;66.80
26408;DHT22;14583;43.604;1.364;2022-08-03T09:35:44;29.90;67.10
26408;DHT22;14583;43.604;1.364;2022-08-03T09:38:11;30.10;67.30
26408;DHT22;14583;43.604;1.364;2022-08-03T09:40:37;30.20;67.00
26408;DHT22;14583;43.604;1.364;2022-08-03T09:43:03;30.20;66.90
26408;DHT22;14583;43.604;1.364;2022-08-03T09:45:33;30.30;67.00
26408;DHT22;14583;43.604;1.364;2022-08-03T09:48:29;30.70;66.60
26408;DHT22;14583;43.604;1.364;2022-08-03T09:50:58;30.70;65.20
26408;DHT22;14583;43.604;1.364;2022-08-03T09:53:25;30.70;64.90
26408;DHT22;14583;43.604;1.364;2022-08-03T09:56:01;30.80;64.60
26408;DHT22;14583;43.604;1.364;2022-08-03T09:58:29;30.90;64.40
26408;DHT22;14583;43.604;1.364;2022-08-03T10:00:59;30.90;63.90
26408;DHT22;14583;43.604;1.364;2022-08-03T10:03:26;31.00;62.30
26408;DHT22;14583;43.604;1.364;2022-08-03T10:05:53;31.00;61.20
26408;DHT22;14583;43.604;1.364;2022-08-03T10:08:19;31.00;61.60
26408;DHT22;14583;43.604;1.364;2022-08-03T10:10:47;30.90;62.40
26408;DHT22;14583;43.604;1.364;2022-08-03T10:13:15;30.90;62.20
26408;DHT22;14583;43.604;1.364;2022-08-03T10:15:41;30.90;61.40
26408;DHT22;14583;43.604;1.364;2022-08-03T10:18:07;31.00;61.40
26408;DHT22;14583;43.604;1.364;2022-08-03T10:20:40;31.10;61.80
26408;DHT22;14583;43.604;1.364;2022-08-03T10:23:08;31.10;61.60
26408;DHT22;14583;43.604;1.364;2022-08-03T10:25:36;31.00;61.30
26408;DHT22;14583;43.604;1.364;2022-08-03T10:28:03;31.40;60.40
26408;DHT22;14583;43.604;1.364;2022-08-03T10:30:31;31.40;60.10
26408;DHT22;14583;43.604;1.364;2022-08-03T10:33:10;31.40;60.10
26408;DHT22;14583;43.604;1.364;2022-08-03T10:35:39;31.40;59.80
26408;DHT22;14583;43.604;1.364;2022-08-03T10:38:11;31.40;59.10
26408;DHT22;14583;43.604;1.364;2022-08-03T10:40:39;31.50;59.20
26408;DHT22;14583;43.604;1.364;2022-08-03T10:43:33;31.60;58.80
26408;DHT22;14583;43.604;1.364;2022-08-03T10:45:54;31.60;58.00
26408;DHT22;14583;43.604;1.364;2022-08-03T10:48:21;31.60;57.10
26408;DHT22;14583;43.604;1.364;2022-08-03T10:50:48;31.60;57.20
26408;DHT22;14583;43.604;1.364;2022-08-03T10:53:15;31.60;57.90
26408;DHT22;14583;43.604;1.364;2022-08-03T10:55:43;31.80;57.70
26408;DHT22;14583;43.604;1.364;2022-08-03T11:01:03;31.90;57.30
26408;DHT22;14583;43.604;1.364;2022-08-03T11:03:33;32.10;57.90
26408;DHT22;14583;43.604;1.364;2022-08-03T11:06:18;32.10;57.40
26408;DHT22;14583;43.604;1.364;2022-08-03T11:08:45;32.20;56.70
26408;DHT22;14583;43.604;1.364;2022-08-03T11:13:57;32.20;56.70
26408;DHT22;14583;43.604;1.364;2022-08-03T11:16:25;32.30;55.60
26408;DHT22;14583;43.604;1.364;2022-08-03T11:18:55;32.40;55.80
26408;DHT22;14583;43.604;1.364;2022-08-03T11:30:10;32.70;54.10
26408;DHT22;14583;43.604;1.364;2022-08-03T11:40:49;33.30;54.00
26408;DHT22;14583;43.604;1.364;2022-08-03T11:46:09;33.20;53.80
26408;DHT22;14583;43.604;1.364;2022-08-03T11:48:43;33.30;52.60
26408;DHT22;14583;43.604;1.364;2022-08-03T11:53:55;33.00;52.90
26408;DHT22;14583;43.604;1.364;2022-08-03T11:56:21;33.30;53.30
26408;DHT22;14583;43.604;1.364;2022-08-03T11:58:50;33.20;52.80
26408;DHT22;14583;43.604;1.364;2022-08-03T12:01:21;33.10;52.30
26408;DHT22;14583;43.604;1.364;2022-08-03T12:03:48;33.20;52.50
26408;DHT22;14583;43.604;1.364;2022-08-03T12:06:15;33.40;51.90
26408;DHT22;14583;43.604;1.364;2022-08-03T12:08:42;33.70;51.30
26408;DHT22;14583;43.604;1.364;2022-08-03T12:11:10;33.70;49.70
26408;DHT22;14583;43.604;1.364;2022-08-03T12:13:48;33.60;49.90
26408;DHT22;14583;43.604;1.364;2022-08-03T12:16:19;33.50;50.90
26408;DHT22;14583;43.604;1.364;2022-08-03T12:18:57;33.70;50.50
26408;DHT22;14583;43.604;1.364;2022-08-03T12:21:23;33.90;50.60
26408;DHT22;14583;43.604;1.364;2022-08-03T12:23:50;34.10;50.60
26408;DHT22;14583;43.604;1.364;2022-08-03T12:26:20;33.80;50.70
26408;DHT22;14583;43.604;1.364;2022-08-03T12:28:49;33.80;50.00
26408;DHT22;14583;43.604;1.364;2022-08-03T12:31:15;34.00;51.10
26408;DHT22;14583;43.604;1.364;2022-08-03T12:33:58;33.90;50.90
26408;DHT22;14583;43.604;1.364;2022-08-03T12:36:26;34.00;50.90
26408;DHT22;14583;43.604;1.364;2022-08-03T12:39:01;33.80;51.40
26408;DHT22;14583;43.604;1.364;2022-08-03T12:41:30;33.80;51.30
26408;DHT22;14583;43.604;1.364;2022-08-03T12:43:56;34.30;51.40
26408;DHT22;14583;43.604;1.364;2022-08-03T12:46:21;34.40;51.50
26408;DHT22;14583;43.604;1.364;2022-08-03T12:49:09;34.40;49.60
26408;DHT22;14583;43.604;1.364;2022-08-03T12:54:07;34.70;50.10
26408;DHT22;14583;43.604;1.364;2022-08-03T12:56:34;34.70;48.40
26408;DHT22;14583;43.604;1.364;2022-08-03T12:59:22;34.50;49.10
26408;DHT22;14583;43.604;1.364;2022-08-03T13:01:46;34.40;50.00
26408;DHT22;14583;43.604;1.364;2022-08-03T13:04:12;34.60;49.40
26408;DHT22;14583;43.604;1.364;2022-08-03T13:06:57;35.00;49.70
26408;DHT22;14583;43.604;1.364;2022-08-03T13:09:22;35.00;49.20
26408;DHT22;14583;43.604;1.364;2022-08-03T13:12:04;34.90;49.20
26408;DHT22;14583;43.604;1.364;2022-08-03T13:14:31;34.90;47.90
26408;DHT22;14583;43.604;1.364;2022-08-03T13:16:57;35.00;48.80
26408;DHT22;14583;43.604;1.364;2022-08-03T13:19:23;34.90;50.00
26408;DHT22;14583;43.604;1.364;2022-08-03T13:21:49;35.00;50.80
26408;DHT22;14583;43.604;1.364;2022-08-03T13:24:14;34.80;50.60
26408;DHT22;14583;43.604;1.364;2022-08-03T13:26:40;34.60;50.30
26408;DHT22;14583;43.604;1.364;2022-08-03T13:29:06;34.50;50.30
26408;DHT22;14583;43.604;1.364;2022-08-03T13:31:31;34.60;50.30
26408;DHT22;14583;43.604;1.364;2022-08-03T13:33:57;34.70;50.30
26408;DHT22;14583;43.604;1.364;2022-08-03T13:36:23;35.00;49.70
26408;DHT22;14583;43.604;1.364;2022-08-03T13:38:49;35.10;49.20
26408;DHT22;14583;43.604;1.364;2022-08-03T13:41:15;35.30;49.50
26408;DHT22;14583;43.604;1.364;2022-08-03T13:43:41;35.60;48.80
26408;DHT22;14583;43.604;1.364;2022-08-03T13:46:06;35.60;48.60
26408;DHT22;14583;43.604;1.364;2022-08-03T13:48:32;35.60;48.10
26408;DHT22;14583;43.604;1.364;2022-08-03T13:50:58;35.90;48.40
26408;DHT22;14583;43.604;1.364;2022-08-03T13:53:23;35.80;47.10
26408;DHT22;14583;43.604;1.364;2022-08-03T13:55:49;35.50;47.20
26408;DHT22;14583;43.604;1.364;2022-08-03T13:58:15;35.50;47.80
26408;DHT22;14583;43.604;1.364;2022-08-03T14:00:40;35.90;48.10
26408;DHT22;14583;43.604;1.364;2022-08-03T14:03:06;36.00;46.80
26408;DHT22;14583;43.604;1.364;2022-08-03T14:05:33;36.10;46.30
26408;DHT22;14583;43.604;1.364;2022-08-03T14:08:00;36.20;45.50
26408;DHT22;14583;43.604;1.364;2022-08-03T14:10:26;36.20;45.70
26408;DHT22;14583;43.604;1.364;2022-08-03T14:12:52;36.30;45.10
26408;DHT22;14583;43.604;1.364;2022-08-03T14:15:18;36.20;46.30
26408;DHT22;14583;43.604;1.364;2022-08-03T14:17:43;36.30;46.30
26408;DHT22;14583;43.604;1.364;2022-08-03T14:20:09;36.40;46.90
26408;DHT22;14583;43.604;1.364;2022-08-03T14:22:37;36.70;46.30
26408;DHT22;14583;43.604;1.364;2022-08-03T14:25:03;36.60;46.10
26408;DHT22;14583;43.604;1.364;2022-08-03T14:27:29;36.70;44.10
26408;DHT22;14583;43.604;1.364;2022-08-03T14:29:54;36.80;44.30
26408;DHT22;14583;43.604;1.364;2022-08-03T14:32:25;36.80;44.10
26408;DHT22;14583;43.604;1.364;2022-08-03T14:34:50;36.90;44.60
26408;DHT22;14583;43.604;1.364;2022-08-03T14:37:16;36.80;44.10
26408;DHT22;14583;43.604;1.364;2022-08-03T14:39:42;36.60;44.40
26408;DHT22;14583;43.604;1.364;2022-08-03T14:42:08;36.60;43.80
26408;DHT22;14583;43.604;1.364;2022-08-03T14:44:34;36.70;43.40
26408;DHT22;14583;43.604;1.364;2022-08-03T14:46:59;36.80;43.00
26408;DHT22;14583;43.604;1.364;2022-08-03T14:49:25;37.00;42.30
26408;DHT22;14583;43.604;1.364;2022-08-03T14:51:51;37.10;42.50
26408;DHT22;14583;43.604;1.364;2022-08-03T14:54:16;37.10;42.40
26408;DHT22;14583;43.604;1.364;2022-08-03T14:56:42;37.10;43.20
26408;DHT22;14583;43.604;1.364;2022-08-03T14:59:08;37.10;45.30
26408;DHT22;14583;43.604;1.364;2022-08-03T15:01:33;37.30;45.30
26408;DHT22;14583;43.604;1.364;2022-08-03T15:03:59;37.50;43.50
26408;DHT22;14583;43.604;1.364;2022-08-03T15:06:25;37.40;43.50
26408;DHT22;14583;43.604;1.364;2022-08-03T15:08:50;37.30;43.50
26408;DHT22;14583;43.604;1.364;2022-08-03T15:11:16;37.20;43.30
26408;DHT22;14583;43.604;1.364;2022-08-03T15:13:42;37.30;44.10
26408;DHT22;14583;43.604;1.364;2022-08-03T15:16:07;37.30;43.20
26408;DHT22;14583;43.604;1.364;2022-08-03T15:18:34;37.40;42.60
26408;DHT22;14583;43.604;1.364;2022-08-03T15:20:59;37.50;43.20
26408;DHT22;14583;43.604;1.364;2022-08-03T15:23:25;37.70;44.10
26408;DHT22;14583;43.604;1.364;2022-08-03T15:25:51;37.70;44.00
26408;DHT22;14583;43.604;1.364;2022-08-03T15:28:16;37.80;43.80
26408;DHT22;14583;43.604;1.364;2022-08-03T15:30:42;37.90;44.30
26408;DHT22;14583;43.604;1.364;2022-08-03T15:33:08;38.00;44.50
26408;DHT22;14583;43.604;1.364;2022-08-03T15:35:34;38.10;44.80
26408;DHT22;14583;43.604;1.364;2022-08-03T15:38:00;38.40;45.10
26408;DHT22;14583;43.604;1.364;2022-08-03T15:40:25;38.50;45.30
26408;DHT22;14583;43.604;1.364;2022-08-03T15:42:51;38.60;44.90
26408;DHT22;14583;43.604;1.364;2022-08-03T15:45:16;38.70;44.50
26408;DHT22;14583;43.604;1.364;2022-08-03T15:47:42;38.80;45.00
26408;DHT22;14583;43.604;1.364;2022-08-03T15:50:08;38.90;44.40
26408;DHT22;14583;43.604;1.364;2022-08-03T15:52:36;38.90;44.00
26408;DHT22;14583;43.604;1.364;2022-08-03T15:55:03;38.90;44.30
26408;DHT22;14583;43.604;1.364;2022-08-03T15:57:29;39.20;44.20
26408;DHT22;14583;43.604;1.364;2022-08-03T15:59:54;39.60;45.50
26408;DHT22;14583;43.604;1.364;2022-08-03T16:02:20;39.80;44.20
26408;DHT22;14583;43.604;1.364;2022-08-03T16:04:46;40.20;43.90
26408;DHT22;14583;43.604;1.364;2022-08-03T16:07:11;41.10;46.20
26408;DHT22;14583;43.604;1.364;2022-08-03T16:09:40;44.70;47.20
26408;DHT22;14583;43.604;1.364;2022-08-03T16:12:06;50.10;42.30
26408;DHT22;14583;43.604;1.364;2022-08-03T16:14:32;53.00;40.10
26408;DHT22;14583;43.604;1.364;2022-08-03T16:16:58;55.40;37.50
26408;DHT22;14583;43.604;1.364;2022-08-03T16:19:24;56.50;33.10
26408;DHT22;14583;43.604;1.364;2022-08-03T16:21:49;56.20;32.90